Framingham, MA

7:44 PM EDT on June 03, 2015 (GMT -0400)
KMAFRAMI10 | | Change Station
CLOSE
Current Station
Personal Weather Station
Location: Framingham, MA
Elevation: 170 ft
Nearby Weather Stations

Elev 170 ft 42.27 °N, 71.42 °W | Updated 18 hours ago

Clear
Clear
56 °F
Feels Like 56 °F
N
6
Wind Variable Wind from ESE
Gusts 12 mph

Today
High -- | Low -- °F
--% Chance of Precip.
Yesterday
High -- | Low -- °F
Precip. -- in
5:10 AM 8:17 PM
Full, 98% visible
Pressure 30.21 in
Visibility 10.0 miles
Clouds Clear
Dew Point 44 °F
Humidity 63%
Rainfall 0.00 in
Snow Depth Not available.
UV 1 out of 12
Pollen 7.10 out of 12
Air Quality Not available.
Flu Activity Local Activity
METAR KOWD 032253Z 12004KT 10SM CLR 15/08 A3021 RMK AO2 SLP230 T01500078

More Conditions Fewer Conditions

Pressure 30.21 in
Visibility 10.0 miles
Clouds Clear
Dew Point 44 °F
Humidity 63%
Rainfall 0.00 in
Snow Depth Not available.
UV 1 out of 12
Pollen 7.10 out of 12
Air Quality Not available.
Flu Activity Local Activity
METAR KOWD 032253Z 12004KT 10SM CLR 15/08 A3021 RMK AO2 SLP230 T01500078

More Conditions Fewer Conditions

10-Day Weather Forecast

×

Almanac

Astronomy

Jun. 03, 2015 Rise Set
Actual Time
Civil Twilight
Nautical Twilight
Astronomical Twilight
Moon
Length of Visible Light
Length of Day
Tomorrow will be .
, % of the Moon is Illuminated

Today's Extremes

State Highs State Lows

Community

WunderPhotos

Upload Photos

1,826,304 photos uploaded!

WunderBlogs® & News

Nearby

Air Quality

  Air Quality AQ Index Pollutant
Not available.

Snow Depth

Station Depth Elevation

Earthquake Activity

City Distance Mag. Time & Date
Minimum magnitude displayed is 2.5.

Coastal Water Temperatures

Place Temperature

Stations

Nearby Weather Stations

Station Location Temp. Windchill Dew Point Humidity Wind Precip. Elev Updated Type